Página principal
METAR-TAF:

METAR-TAF

Aeroportos :

Aeroporto Internacional Aristides Pereira

Ilha da Boa Vista, Cabo Verde

latitude: 16-08-15N, longitude: 22-53-22W, altura: 21 m

Observação actual do tempo

O boletim foi feito há 24 minutos, às 11:00 UTC
Vento 15 kt de norte
Temperatura 25°C
Humidade 74%
Pressão 1016 hPa
Visibilidade 10 km ou mais
Nuvens fragmentadasa uma altura de 1500 ft

METAR: GVBA 071100Z 01015KT 9999 BKN015 25/20 Q1016 NOSIG

Hora: 10:24 (11:24 UTC)

Previsão

O boletim foi feito há 12 horas e 24 minutos, às 23:00 UTC
Previsão válida de 07 às 00 UTC a 08 às 06 UTC
Vento 12 kt de norte
Visibilidade 10 km ou mais
Nuvens dispersasa uma altura de 1400 ft

TAF: GVBA 062300Z 0700/0806 36012KT 9999 SCT014

Observações e previsões do tempo de mais de 4000 aeroportos (mensagens METAR e TAF).

As estações disponíveis são os pontos amarelos e vermelhos sobre o mapa.

Mova o rato sobre o mapa para ver o nome da estação.

Depois clique no ponto para visualizar as observações e previsões meteorológicas.

Para alterar o mapa : clique nos botões verdes com uma cruz preta para aumentar o zoom; no botão verde com uma pitada de zoom; ou nas setas verdes para mapas adjacentes.


METAR-TAF: